Time;durP1;ratioP1;P1;durP2;ratioP2;P2;SDS_P1;SDS_P2;PMS_P1;PMS_P2;Temp;Humidity;BMP_temperature;BMP_pressure;BME280_temperature;BME280_humidity;BME280_pressure;Samples;Min_cycle;Max_cycle;Signal;HPM_P1;HPM_P2
2023/05/19 00:02:14;;;;;;;0.70;0.50;;;;;;;;;;20945466;28;20275;-82
2023/05/19 00:12:16;;;;;;;2.27;0.50;;;;;;;;;;20915993;28;20683;-82
2023/05/19 00:22:18;;;;;;;1.67;0.70;;;;;;;;;;20896226;28;20222;-81
2023/05/19 00:32:20;;;;;;;1.83;0.73;;;;;;;;;;20896337;28;20283;-81
2023/05/19 00:42:21;;;;;;;1.23;0.70;;;;;;;;;;20885548;28;20297;-83
2023/05/19 00:52:23;;;;;;;2.40;0.70;;;;;;;;;;20891185;28;20252;-83
2023/05/19 01:02:25;;;;;;;1.20;0.70;;;;;;;;;;20904440;28;20222;-83
2023/05/19 01:12:26;;;;;;;2.30;0.87;;;15.50;99.90;;;;;;20941330;28;20259;-82
2023/05/19 01:22:43;;;;;;;1.17;0.60;;;;;;;;;;20865179;28;20711;-84
2023/05/19 01:32:47;;;;;;;3.47;0.90;;;15.30;99.90;;;;;;20902399;28;20218;-81
2023/05/19 01:42:50;;;;;;;2.33;0.70;;;;;;;;;;20869260;28;20226;-83
2023/05/19 01:52:55;;;;;;;1.37;0.70;;;;;;;;;;20882247;28;20294;-82
2023/05/19 02:03:15;;;;;;;2.33;0.67;;;;;;;;;;20816313;28;20219;-82
2023/05/19 02:13:19;;;;;;;1.30;0.63;;;;;;;;;;20827434;28;20245;-84
2023/05/19 02:23:21;;;;;;;1.77;0.60;;;;;;;;;;20924867;28;20286;-81
2023/05/19 02:33:24;;;;;;;1.83;0.60;;;;;;;;;;20971257;28;20225;-84
2023/05/19 02:43:29;;;;;;;3.57;0.53;;;;;;;;;;20951571;28;20262;-85
2023/05/19 02:53:31;;;;;;;1.80;0.50;;;;;;;;;;20990647;28;20683;-85
2023/05/19 03:03:36;;;;;;;0.97;0.50;;;;;;;;;;20966001;28;20237;-84
2023/05/19 03:13:37;;;;;;;2.03;0.60;;;;;;;;;;20971875;28;20234;-85
2023/05/19 03:23:40;;;;;;;1.30;0.57;;;;;;;;;;20952146;28;20218;-85
2023/05/19 03:33:42;;;;;;;2.73;1.33;;;;;;;;;;20947779;28;20758;-85
2023/05/19 03:43:44;;;;;;;2.33;0.73;;;;;;;;;;20873843;28;20294;-84
2023/05/19 03:53:47;;;;;;;0.97;0.57;;;;;;;;;;20888033;28;20218;-84
2023/05/19 04:03:49;;;;;;;2.80;0.60;;;;;;;;;;20922506;28;20248;-84
2023/05/19 04:13:51;;;;;;;1.23;0.60;;;;;;;;;;20961799;28;20233;-85
2023/05/19 04:46:24;;;;;;;1.73;0.63;;;;;;;;;;20726627;28;20288;-71
2023/05/19 04:56:28;;;;;;;0.70;0.40;;;13.90;99.90;;;;;;20775514;28;20264;-70
2023/05/19 05:06:32;;;;;;;1.03;0.60;;;;;;;;;;20774634;28;20243;-71
2023/05/19 05:16:34;;;;;;;3.20;0.93;;;;;;;;;;20759533;28;20237;-71
2023/05/19 05:26:37;;;;;;;0.50;0.40;;;13.90;99.90;;;;;;20771246;28;20218;-71
2023/05/19 05:36:41;;;;;;;2.13;0.70;;;;;;;;;;20785702;28;20253;-70
2023/05/19 05:46:46;;;;;;;1.40;0.80;;;;;;;;;;20675738;28;20293;-70
2023/05/19 05:56:50;;;;;;;1.00;0.63;;;;;;;;;;20700605;28;20235;-70
2023/05/19 06:06:53;;;;;;;1.53;0.50;;;;;;;;;;20646579;28;20235;-70
2023/05/19 06:16:59;;;;;;;1.63;0.70;;;;;;;;;;20664875;28;20216;-70
2023/05/19 06:27:03;;;;;;;2.53;0.80;;;;;;;;;;20621769;28;20262;-69
2023/05/19 06:37:05;;;;;;;2.20;0.70;;;;;;;;;;20658458;28;20226;-69
2023/05/19 06:47:08;;;;;;;2.03;0.77;;;;;;;;;;20717933;28;20215;-70
2023/05/19 06:57:10;;;;;;;2.00;0.73;;;;;;;;;;20627078;28;20271;-70
2023/05/19 07:07:12;;;;;;;1.17;0.60;;;;;;;;;;20606843;28;20224;-70
2023/05/19 07:17:15;;;;;;;1.13;0.60;;;;;;;;;;20621748;28;20211;-70
2023/05/19 07:27:19;;;;;;;2.57;0.93;;;;;;;;;;20644543;28;20312;-70
2023/05/19 07:37:21;;;;;;;1.67;0.80;;;;;;;;;;20714079;28;20231;-70
2023/05/19 07:47:23;;;;;;;1.03;0.60;;;;;;;;;;20749890;28;20288;-70
2023/05/19 07:57:25;;;;;;;0.50;0.40;;;;;;;;;;20777144;28;20219;-70
2023/05/19 08:07:27;;;;;;;3.57;0.97;;;;;;;;;;20696353;28;20710;-70
2023/05/19 08:17:28;;;;;;;1.83;0.90;;;;;;;;;;20694895;28;20207;-70
2023/05/19 08:27:30;;;;;;;1.13;0.67;;;;;;;;;;20686009;28;20215;-70
2023/05/19 08:37:35;;;;;;;1.47;0.60;;;;;;;;;;20701921;28;20235;-70
2023/05/19 08:47:41;;;;;;;2.37;0.70;;;17.60;99.90;;;;;;20697550;28;20699;-70
2023/05/19 08:57:43;;;;;;;1.63;0.70;;;;;;;;;;20627598;28;20262;-70
2023/05/19 09:07:47;;;;;;;1.40;0.90;;;;;;;;;;20675188;28;20278;-70
2023/05/19 09:17:49;;;;;;;1.33;0.80;;;;;;;;;;20770742;28;20215;-70
2023/05/19 09:27:58;;;;;;;3.57;0.87;;;;;;;;;;21192345;27;20574;-70
2023/05/19 09:38:00;;;;;;;1.33;0.70;;;;;;;;;;20990143;28;20209;-69
2023/05/19 09:48:05;;;;;;;2.43;0.80;;;;;;;;;;21026456;28;20270;-69
2023/05/19 09:58:07;;;;;;;1.63;0.60;;;;;;;;;;21006000;28;20205;-69
2023/05/19 10:08:11;;;;;;;1.97;0.80;;;;;;;;;;21010873;28;20958;-70
2023/05/19 10:18:14;;;;;;;1.70;0.70;;;;;;;;;;21019809;28;20219;-69
2023/05/19 10:28:19;;;;;;;2.57;0.83;;;;;;;;;;21002740;28;20573;-69
2023/05/19 10:38:33;;;;;;;1.33;0.60;;;;;;;;;;20968113;28;20209;-70
2023/05/19 10:48:45;;;;;;;1.00;0.60;;;;;;;;;;20978327;28;20214;-70
2023/05/19 10:58:51;;;;;;;1.10;0.50;;;;;;;;;;20960422;28;20696;-71
2023/05/19 11:09:09;;;;;;;0.97;0.67;;;;;;;;;;20976568;28;20214;-70
2023/05/19 11:19:26;;;;;;;1.93;0.50;;;20.20;99.90;;;;;;20958738;28;20210;-70
2023/05/19 11:29:31;;;;;;;1.87;0.70;;;;;;;;;;20942271;28;20627;-69
2023/05/19 11:39:33;;;;;;;2.00;0.90;;;;;;;;;;20958143;28;20210;-70
2023/05/19 11:49:34;;;;;;;1.17;0.53;;;;;;;;;;20956038;28;20274;-70
2023/05/19 11:59:39;;;;;;;1.17;0.87;;;21.20;99.90;;;;;;20956161;28;20593;-70
2023/05/19 12:09:42;;;;;;;1.83;0.60;;;;;;;;;;20938661;28;20246;-70
2023/05/19 12:19:45;;;;;;;2.07;0.73;;;21.40;99.90;;;;;;20954102;28;20269;-70
2023/05/19 12:29:53;;;;;;;1.37;0.53;;;;;;;;;;20954084;28;20570;-69
2023/05/19 12:39:55;;;;;;;0.73;0.47;;;;;;;;;;20936996;28;20322;-71
2023/05/19 12:50:02;;;;;;;0.67;0.43;;;;;;;;;;20952813;28;20207;-68
2023/05/19 13:00:08;;;;;;;2.97;1.60;;;;;;;;;;20935674;28;20223;-69
2023/05/19 13:10:10;;;;;;;2.00;0.50;;;;;;;;;;20968561;28;20202;-70
2023/05/19 13:20:12;;;;;;;0.90;0.40;;;20.30;99.90;;;;;;20994871;22;20230;-69
2023/05/19 13:30:15;;;;;;;1.83;0.60;;;20.00;99.90;;;;;;21067879;28;20214;-71
2023/05/19 13:40:17;;;;;;;0.97;0.70;;;;;;;;;;21066173;28;20219;-70
2023/05/19 13:50:20;;;;;;;3.07;0.63;;;;;;;;;;21066726;28;20630;-70
2023/05/19 14:00:22;;;;;;;1.03;0.40;;;;;;;;;;21044242;28;20655;-70
2023/05/19 14:10:24;;;;;;;0.90;0.70;;;;;;;;;;21075061;28;20286;-70
2023/05/19 14:20:26;;;;;;;0.63;0.53;;;;;;;;;;21080615;28;20214;-70
2023/05/19 14:30:27;;;;;;;1.33;0.60;;;;;;;;;;21078962;28;20213;-70
2023/05/19 14:40:29;;;;;;;4.03;0.70;;;;;;;;;;21030901;28;20281;-70
2023/05/19 14:50:31;;;;;;;0.53;0.40;;;;;;;;;;21026051;28;20210;-70
2023/05/19 15:00:33;;;;;;;0.63;0.40;;;;;;;;;;21063186;28;20222;-71
2023/05/19 15:10:35;;;;;;;1.43;0.60;;;;;;;;;;21073646;28;20223;-70
2023/05/19 15:20:39;;;;;;;1.20;0.80;;;;;;;;;;21067059;28;20256;-70
2023/05/19 15:30:42;;;;;;;2.70;1.70;;;;;;;;;;21053803;28;20210;-70
2023/05/19 15:40:43;;;;;;;1.70;0.90;;;;;;;;;;21068515;28;20244;-70
2023/05/19 15:50:45;;;;;;;1.40;0.87;;;;;;;;;;21069033;28;20206;-70
2023/05/19 16:00:47;;;;;;;0.90;0.50;;;;;;;;;;21053947;28;20291;-70
2023/05/19 16:10:49;;;;;;;2.63;0.90;;;;;;;;;;21071220;28;20635;-70
2023/05/19 16:20:51;;;;;;;0.77;0.50;;;;;;;;;;21066281;28;20276;-70
2023/05/19 16:30:57;;;;;;;1.73;0.43;;;20.20;99.90;;;;;;21069189;28;20215;-68
2023/05/19 16:40:59;;;;;;;1.40;0.70;;;;;;;;;;21062495;28;20709;-68
2023/05/19 16:51:01;;;;;;;1.03;0.70;;;;;;;;;;21068834;28;20221;-68
2023/05/19 17:01:03;;;;;;;0.90;0.60;;;;;;;;;;21069548;28;20350;-68
2023/05/19 17:11:05;;;;;;;2.97;0.83;;;;;;;;;;21069450;28;20627;-68
2023/05/19 17:21:07;;;;;;;1.33;0.73;;;;;;;;;;21067645;28;20218;-68
2023/05/19 17:31:11;;;;;;;2.00;0.67;;;20.00;99.90;;;;;;21064931;28;20702;-69
2023/05/19 17:41:13;;;;;;;0.87;0.50;;;;;;;;;;21069921;28;20214;-68
2023/05/19 17:51:15;;;;;;;1.40;0.60;;;;;;;;;;21083226;28;20705;-68
2023/05/19 18:01:19;;;;;;;1.20;0.70;;;19.90;99.90;;;;;;21082373;28;20218;-69
2023/05/19 18:11:21;;;;;;;1.00;0.50;;;;;;;;;;21074676;28;20252;-68
2023/05/19 18:21:23;;;;;;;1.37;0.50;;;;;;;;;;21075383;28;20291;-69
2023/05/19 18:31:26;;;;;;;0.87;0.60;;;;;;;;;;21061034;28;20247;-69
2023/05/19 18:41:27;;;;;;;1.20;0.60;;;;;;;;;;21076265;28;20223;-69
2023/05/19 18:51:31;;;;;;;2.00;1.13;;;;;;;;;;21074488;28;20276;-69
2023/05/19 19:01:33;;;;;;;2.30;0.93;;;;;;;;;;21071135;28;20226;-68
2023/05/19 19:11:35;;;;;;;1.27;0.70;;;;;;;;;;21056230;28;20206;-68
2023/05/19 19:21:37;;;;;;;3.80;1.90;;;;;;;;;;21072097;28;20237;-68
2023/05/19 19:31:38;;;;;;;1.37;0.70;;;;;;;;;;21073195;28;20211;-69
2023/05/19 19:41:40;;;;;;;1.03;0.60;;;;;;;;;;21054194;22;20283;-68
2023/05/19 19:51:42;;;;;;;0.77;0.50;;;;;;;;;;21044537;28;20214;-68
2023/05/19 20:01:44;;;;;;;2.17;0.77;;;;;;;;;;21052260;28;20287;-69
2023/05/19 20:11:46;;;;;;;0.77;0.47;;;;;;;;;;21060628;28;20213;-69
2023/05/19 20:21:48;;;;;;;0.63;0.40;;;;;;;;;;21070513;28;20253;-69
2023/05/19 20:31:49;;;;;;;1.43;0.63;;;;;;;;;;21069840;28;20294;-69
2023/05/19 20:41:51;;;;;;;1.07;0.40;;;;;;;;;;21069262;28;20216;-68
2023/05/19 20:51:53;;;;;;;0.97;0.50;;;;;;;;;;21052064;28;20213;-69
2023/05/19 21:01:56;;;;;;;1.03;0.50;;;;;;;;;;21046380;28;20272;-69
2023/05/19 21:11:57;;;;;;;0.70;0.40;;;;;;;;;;21033461;28;20670;-69
2023/05/19 21:21:59;;;;;;;0.60;0.40;;;;;;;;;;21052826;28;20599;-70
2023/05/19 21:32:01;;;;;;;0.53;0.40;;;;;;;;;;21055212;28;20217;-69
2023/05/19 21:42:04;;;;;;;0.40;0.33;;;;;;;;;;21026636;28;20700;-69
2023/05/19 21:52:06;;;;;;;0.73;0.40;;;;;;;;;;21038335;28;20623;-69
2023/05/19 22:02:08;;;;;;;0.83;0.50;;;;;;;;;;21065603;28;20466;-68
2023/05/19 22:12:10;;;;;;;0.80;0.50;;;;;;;;;;21030776;28;20207;-69
2023/05/19 22:22:12;;;;;;;0.60;0.43;;;;;;;;;;20992468;28;20242;-69
2023/05/19 22:32:16;;;;;;;0.73;0.40;;;;;;;;;;21073796;28;20254;-69
2023/05/19 22:42:18;;;;;;;0.57;0.40;;;;;;;;;;21076477;28;20286;-69
2023/05/19 22:52:20;;;;;;;0.47;0.40;;;;;;;;;;20995465;28;20253;-69
2023/05/19 23:02:21;;;;;;;0.80;0.50;;;;;;;;;;20995018;28;20217;-70
2023/05/19 23:12:23;;;;;;;1.57;0.50;;;;;;;;;;20993828;28;20205;-69
2023/05/19 23:22:25;;;;;;;1.07;0.60;;;;;;;;;;20992131;28;20233;-70
2023/05/19 23:32:26;;;;;;;1.30;0.67;;;17.90;99.90;;;;;;20992907;28;20259;-70
2023/05/19 23:42:28;;;;;;;0.67;0.40;;;;;;;;;;21048391;28;20247;-70
2023/05/19 23:52:31;;;;;;;0.70;0.50;;;;;;;;;;21073761;28;20212;-70
